createdAt,value
2022-09-16T00:00:02.561Z,99012.34
2022-09-16T00:02:59.068Z,99008.95
2022-09-16T00:05:57.960Z,99007.20
2022-09-16T00:08:33.880Z,99007.65
2022-09-16T00:11:07.231Z,98999.59
2022-09-16T00:16:33.604Z,99003.38
2022-09-16T00:19:08.338Z,99014.33
2022-09-16T00:21:42.543Z,99010.58
2022-09-16T00:24:16.211Z,99008.12
2022-09-16T00:26:49.703Z,99011.53
2022-09-16T00:29:22.246Z,99015.31
2022-09-16T00:31:55.044Z,99015.00
2022-09-16T00:34:27.802Z,99003.45
2022-09-16T00:37:00.294Z,99015.23
2022-09-16T00:39:33.789Z,99016.66
2022-09-16T00:42:08.358Z,99003.35
2022-09-16T00:45:00.927Z,99012.74
2022-09-16T00:47:45.303Z,99017.00
2022-09-16T00:50:39.036Z,99016.48
2022-09-16T00:53:18.177Z,99015.35
2022-09-16T00:55:53.508Z,99018.23
2022-09-16T00:58:30.280Z,99004.93
2022-09-16T01:01:11.602Z,99002.54
2022-09-16T01:04:00.217Z,98993.77
2022-09-16T01:06:46.458Z,98999.06
2022-09-16T01:10:02.650Z,99011.97
2022-09-16T01:12:20.275Z,99016.41
2022-09-16T01:14:57.771Z,99017.41
2022-09-16T01:17:54.167Z,99014.01
2022-09-16T01:21:01.641Z,99007.41
2022-09-16T01:23:48.417Z,99000.94
2022-09-16T01:27:04.029Z,99002.54
2022-09-16T01:29:59.260Z,98993.22
2022-09-16T01:33:06.569Z,98993.48
2022-09-16T01:36:04.874Z,98998.91
2022-09-16T01:38:53.574Z,99016.91
2022-09-16T01:41:33.122Z,99015.54
2022-09-16T01:44:22.392Z,99015.11
2022-09-16T01:47:10.982Z,99003.90
2022-09-16T01:50:04.984Z,99014.86
2022-09-16T01:52:54.049Z,99029.20
2022-09-16T01:55:34.206Z,99026.55
2022-09-16T01:58:29.652Z,99014.19
2022-09-16T02:01:17.240Z,99021.29
2022-09-16T02:03:57.712Z,99019.36
2022-09-16T02:06:33.089Z,99019.63
2022-09-16T02:09:17.139Z,99019.09
2022-09-16T02:11:54.200Z,99023.30
2022-09-16T02:14:34.586Z,99020.21
2022-09-16T02:17:14.933Z,99016.05
2022-09-16T02:20:16.618Z,99002.44
2022-09-16T02:22:58.303Z,99004.93
2022-09-16T02:25:47.300Z,98994.21
2022-09-16T02:28:34.556Z,98992.80
2022-09-16T02:31:15.879Z,99004.54
2022-09-16T02:33:55.508Z,99016.30
2022-09-16T02:36:31.011Z,99019.29
2022-09-16T02:39:13.099Z,99029.96
2022-09-16T02:41:47.029Z,99027.64
2022-09-16T02:44:20.818Z,99037.08
2022-09-16T02:47:03.250Z,99034.99
2022-09-16T02:50:07.025Z,99021.64
2022-09-16T02:52:56.237Z,99013.58
2022-09-16T02:55:54.030Z,99022.63
2022-09-16T02:58:30.785Z,99028.91
2022-09-16T03:01:06.108Z,99022.74
2022-09-16T03:03:38.860Z,99021.33
2022-09-16T03:06:21.056Z,99026.46
2022-09-16T03:08:56.119Z,99027.88
2022-09-16T03:12:14.474Z,99027.75
2022-09-16T03:15:32.252Z,99016.23
2022-09-16T03:18:27.880Z,99009.57
2022-09-16T03:21:13.973Z,98992.48
2022-09-16T03:24:00.385Z,99008.73
2022-09-16T03:30:04.717Z,98996.31
2022-09-16T03:32:59.896Z,99002.83
2022-09-16T03:35:51.396Z,99005.02
2022-09-16T03:38:25.376Z,99010.98
2022-09-16T03:41:00.396Z,99014.46
2022-09-16T03:43:33.390Z,99023.92
2022-09-16T03:46:08.542Z,99032.30
2022-09-16T03:48:41.792Z,99037.18
2022-09-16T03:51:14.209Z,99033.67
2022-09-16T03:53:47.108Z,99042.08
2022-09-16T03:56:20.154Z,99039.25
2022-09-16T03:58:53.040Z,99052.27
2022-09-16T04:01:25.856Z,99058.13
2022-09-16T04:04:00.097Z,99057.88
2022-09-16T04:06:34.281Z,99060.48
2022-09-16T04:09:13.286Z,99058.48
2022-09-16T04:11:47.507Z,99051.59
2022-09-16T04:14:21.077Z,99055.47
2022-09-16T04:16:54.410Z,99050.70
2022-09-16T04:19:27.428Z,99052.81
2022-09-16T04:22:01.737Z,99057.77
2022-09-16T04:24:35.244Z,99063.58
2022-09-16T04:27:08.286Z,99070.56
2022-09-16T04:29:41.098Z,99072.08
2022-09-16T04:32:13.846Z,99074.62
2022-09-16T04:34:47.456Z,99079.84
2022-09-16T04:37:21.351Z,99077.54
2022-09-16T04:39:54.370Z,99073.72
2022-09-16T04:42:27.467Z,99085.00
2022-09-16T04:45:00.946Z,99087.23
2022-09-16T04:47:33.971Z,99091.33
2022-09-16T04:50:07.021Z,99097.80
2022-09-16T04:52:40.782Z,99092.89
2022-09-16T04:55:13.829Z,99097.04
2022-09-16T04:57:50.519Z,99101.52
2022-09-16T05:00:24.097Z,99107.21
2022-09-16T05:02:57.287Z,99120.32
2022-09-16T05:05:30.234Z,99117.13
2022-09-16T05:08:03.068Z,99121.65
2022-09-16T05:10:36.823Z,99114.81
2022-09-16T05:13:13.350Z,99113.20
2022-09-16T05:15:51.043Z,99120.08
2022-09-16T05:18:26.387Z,99114.52
2022-09-16T05:21:03.503Z,99120.09
2022-09-16T05:23:36.833Z,99119.56
2022-09-16T05:26:12.670Z,99121.55
2022-09-16T05:28:46.858Z,99119.50
2022-09-16T05:31:31.467Z,99127.73
2022-09-16T05:34:09.892Z,99132.72
2022-09-16T05:36:49.018Z,99139.63
2022-09-16T05:39:25.037Z,99142.39
2022-09-16T05:42:02.013Z,99140.55
2022-09-16T05:44:36.232Z,99138.70
2022-09-16T05:47:09.166Z,99136.38
2022-09-16T05:49:42.811Z,99146.02
2022-09-16T05:52:16.426Z,99146.89
2022-09-16T05:57:39.567Z,99135.87
2022-09-16T06:00:13.726Z,99150.73
2022-09-16T06:02:49.909Z,99155.31
2022-09-16T06:05:24.148Z,99162.38
2022-09-16T06:08:00.502Z,99147.73
2022-09-16T06:10:35.356Z,99168.04
2022-09-16T06:13:10.171Z,99197.58
2022-09-16T06:15:50.982Z,99197.69
2022-09-16T06:18:26.745Z,99207.52
2022-09-16T06:21:01.184Z,99202.66
2022-09-16T06:23:35.956Z,99193.02
2022-09-16T06:29:08.951Z,99185.95
2022-09-16T06:31:43.316Z,99183.63
2022-09-16T06:34:20.731Z,99178.65
2022-09-16T06:36:54.232Z,99175.57
2022-09-16T06:39:27.359Z,99194.48
2022-09-16T06:42:03.719Z,99195.39
2022-09-16T06:44:47.686Z,99206.95
2022-09-16T06:47:20.761Z,99184.64
2022-09-16T06:49:54.046Z,99191.69
2022-09-16T06:52:27.620Z,99197.16
2022-09-16T06:55:01.228Z,99201.27
2022-09-16T06:57:35.123Z,99204.14
2022-09-16T07:00:09.625Z,99210.55
2022-09-16T07:02:43.361Z,99214.15
2022-09-16T07:05:17.140Z,99227.65
2022-09-16T07:07:50.684Z,99236.24
2022-09-16T07:10:26.005Z,99234.48
2022-09-16T07:12:59.115Z,99236.34
2022-09-16T07:15:32.568Z,99236.44
2022-09-16T07:18:06.139Z,99227.42
2022-09-16T07:20:40.038Z,99225.16
2022-09-16T07:23:13.423Z,99225.89
2022-09-16T07:25:46.794Z,99221.39
2022-09-16T07:28:20.365Z,99233.94
2022-09-16T07:30:53.534Z,99237.80
2022-09-16T07:33:27.038Z,99246.80
2022-09-16T07:36:03.746Z,99245.80
2022-09-16T07:38:40.341Z,99251.51
2022-09-16T07:41:16.162Z,99248.90
2022-09-16T07:43:49.971Z,99247.94
2022-09-16T07:46:23.747Z,99252.61
2022-09-16T07:48:57.594Z,99252.67
2022-09-16T07:51:31.956Z,99250.02
2022-09-16T07:54:07.318Z,99238.61
2022-09-16T07:56:41.826Z,99258.47
2022-09-16T07:59:18.789Z,99261.23
2022-09-16T08:01:52.752Z,99260.61
2022-09-16T08:04:27.131Z,99245.70
2022-09-16T08:07:01.158Z,99251.66
2022-09-16T08:09:38.782Z,99253.05
2022-09-16T08:12:17.425Z,99266.52
2022-09-16T08:14:50.990Z,99263.85
2022-09-16T08:17:25.118Z,99277.17
2022-09-16T08:19:59.417Z,99283.80
2022-09-16T08:22:33.417Z,99286.45
2022-09-16T08:25:07.499Z,99291.52
2022-09-16T08:27:40.873Z,99286.91
2022-09-16T08:30:15.863Z,99289.05
2022-09-16T08:32:49.923Z,99287.88
2022-09-16T08:35:23.370Z,99290.56
2022-09-16T08:37:58.132Z,99295.60
2022-09-16T08:40:38.963Z,99300.88
2022-09-16T08:43:26.527Z,99306.70
2022-09-16T08:46:11.236Z,99308.88
2022-09-16T08:49:02.366Z,99308.27
2022-09-16T08:51:36.386Z,99320.98
2022-09-16T08:54:40.912Z,99333.59
2022-09-16T08:57:21.570Z,99330.44
2022-09-16T09:00:07.253Z,99335.86
2022-09-16T09:03:00.659Z,99333.90
2022-09-16T09:05:46.206Z,99329.59
2022-09-16T09:08:39.826Z,99312.89
2022-09-16T09:11:41.484Z,99327.70
2022-09-16T09:14:33.556Z,99341.72
2022-09-16T09:17:48.601Z,99344.61
2022-09-16T09:20:43.867Z,99339.02
2022-09-16T09:23:24.392Z,99335.28
2022-09-16T09:26:16.168Z,99333.75
2022-09-16T09:29:07.290Z,99336.88
2022-09-16T09:31:59.501Z,99339.29
2022-09-16T09:34:50.830Z,99342.41
2022-09-16T09:37:47.832Z,99346.02
2022-09-16T09:40:44.807Z,99350.48
2022-09-16T09:43:27.838Z,99336.52
2022-09-16T09:46:25.551Z,99344.26
2022-09-16T09:49:16.004Z,99351.55
2022-09-16T09:52:04.256Z,99340.60
2022-09-16T09:54:39.534Z,99343.23
2022-09-16T09:57:28.782Z,99345.15
2022-09-16T10:00:14.820Z,99352.98
2022-09-16T10:02:50.259Z,99353.61
2022-09-16T10:05:28.938Z,99361.88
2022-09-16T10:08:05.866Z,99362.75
2022-09-16T10:10:49.812Z,99372.84
2022-09-16T10:13:24.360Z,99373.73
2022-09-16T10:16:18.594Z,99381.31
2022-09-16T10:19:25.100Z,99381.14
2022-09-16T10:22:19.926Z,99378.08
2022-09-16T10:24:59.043Z,99381.55
2022-09-16T10:27:40.118Z,99393.55
2022-09-16T10:30:26.028Z,99398.80
2022-09-16T10:33:07.974Z,99408.48
2022-09-16T10:35:45.261Z,99414.63
2022-09-16T10:38:24.116Z,99416.80
2022-09-16T10:41:05.666Z,99417.40
2022-09-16T10:43:40.738Z,99420.63
2022-09-16T10:46:19.498Z,99410.81
2022-09-16T10:48:55.875Z,99410.66
2022-09-16T10:51:35.096Z,99419.59
2022-09-16T10:54:09.299Z,99422.41
2022-09-16T10:56:53.947Z,99409.95
2022-09-16T10:59:27.731Z,99410.42
2022-09-16T11:02:06.225Z,99391.48
2022-09-16T11:05:09.613Z,99400.54
2022-09-16T11:08:13.782Z,99405.55
2022-09-16T11:10:58.219Z,99389.53
2022-09-16T11:13:58.530Z,99372.14
2022-09-16T11:16:49.162Z,99371.61
2022-09-16T11:19:58.599Z,99373.96
2022-09-16T11:22:41.510Z,99379.23
2022-09-16T11:25:33.591Z,99387.86
2022-09-16T11:28:15.330Z,99392.14
2022-09-16T11:30:58.776Z,99392.05
2022-09-16T11:34:02.976Z,99388.10
2022-09-16T11:37:01.384Z,99400.35
2022-09-16T11:39:49.447Z,99397.23
2022-09-16T11:42:28.297Z,99399.88
2022-09-16T11:45:39.912Z,99390.34
2022-09-16T11:48:38.375Z,99396.64
2022-09-16T11:51:19.405Z,99404.58
2022-09-16T11:54:07.809Z,99403.13
2022-09-16T11:57:10.877Z,99396.20
2022-09-16T12:00:01.819Z,99394.84
2022-09-16T12:02:58.045Z,99382.30
2022-09-16T12:05:38.918Z,99373.58
2022-09-16T12:08:12.418Z,99377.53
2022-09-16T12:10:59.640Z,99369.27
2022-09-16T12:13:40.410Z,99375.30
2022-09-16T12:16:28.107Z,99372.80
2022-09-16T12:19:13.080Z,99364.98
2022-09-16T12:22:01.202Z,99356.48
2022-09-16T12:25:02.729Z,99362.09
2022-09-16T12:27:59.650Z,99368.38
2022-09-16T12:30:50.852Z,99371.31
2022-09-16T12:33:35.852Z,99364.17
2022-09-16T12:36:19.188Z,99359.91
2022-09-16T12:39:01.593Z,99355.52
2022-09-16T12:42:01.738Z,99347.84
2022-09-16T12:44:54.622Z,99354.65
2022-09-16T12:48:04.683Z,99343.88
2022-09-16T12:51:02.566Z,99342.88
2022-09-16T12:53:38.334Z,99335.75
2022-09-16T12:56:34.862Z,99339.98
2022-09-16T12:59:31.862Z,99326.23
2022-09-16T13:02:19.067Z,99318.86
2022-09-16T13:04:55.553Z,99324.67
2022-09-16T13:07:32.117Z,99333.62
2022-09-16T13:10:46.960Z,99332.07
2022-09-16T13:13:33.423Z,99325.70
2022-09-16T13:16:08.918Z,99325.64
2022-09-16T13:18:53.997Z,99341.70
2022-09-16T13:21:26.913Z,99337.02
2022-09-16T13:24:22.403Z,99344.33
2022-09-16T13:26:56.101Z,99345.69
2022-09-16T13:29:50.058Z,99332.27
2022-09-16T13:32:46.326Z,99323.36
2022-09-16T13:35:22.594Z,99314.55
2022-09-16T13:37:56.597Z,99320.51
2022-09-16T13:40:34.833Z,99325.41
2022-09-16T13:43:13.465Z,99327.69
2022-09-16T13:45:50.099Z,99321.86
2022-09-16T13:48:27.604Z,99320.91
2022-09-16T13:51:09.540Z,99320.72
2022-09-16T13:53:48.034Z,99313.63
2022-09-16T13:56:36.478Z,99304.56
2022-09-16T13:59:32.274Z,99296.45
2022-09-16T14:02:29.937Z,99300.58
2022-09-16T14:05:37.716Z,99287.92
2022-09-16T14:08:22.308Z,99284.87
2022-09-16T14:11:02.351Z,99294.13
2022-09-16T14:13:52.089Z,99294.48
2022-09-16T14:16:30.317Z,99294.06
2022-09-16T14:19:19.013Z,99294.52
2022-09-16T14:22:23.164Z,99289.11
2022-09-16T14:25:06.795Z,99298.14
2022-09-16T14:30:32.816Z,99294.59
2022-09-16T14:33:08.589Z,99295.35
2022-09-16T14:35:42.258Z,99301.55
2022-09-16T14:38:43.953Z,99304.02
2022-09-16T14:41:34.706Z,99296.56
2022-09-16T14:44:32.756Z,99301.08
2022-09-16T14:47:29.320Z,99302.06
2022-09-16T14:50:17.417Z,99294.59
2022-09-16T14:53:09.769Z,99307.27
2022-09-16T14:55:52.369Z,99311.35
2022-09-16T14:58:27.405Z,99305.69
2022-09-16T15:01:15.810Z,99297.23
2022-09-16T15:03:54.990Z,99287.98
2022-09-16T15:06:32.487Z,99273.88
2022-09-16T15:09:18.493Z,99285.01
2022-09-16T15:11:56.988Z,99286.88
2022-09-16T15:14:30.883Z,99293.07
2022-09-16T15:17:06.020Z,99296.48
2022-09-16T15:19:43.633Z,99295.63
2022-09-16T15:22:18.154Z,99293.42
2022-09-16T15:24:54.720Z,99301.94
2022-09-16T15:27:30.217Z,99300.05
2022-09-16T15:30:06.514Z,99298.20
2022-09-16T15:32:49.546Z,99296.59
2022-09-16T15:35:23.111Z,99296.34
2022-09-16T15:37:58.485Z,99297.34
2022-09-16T15:40:33.106Z,99298.34
2022-09-16T15:43:19.063Z,99290.60
2022-09-16T15:46:04.215Z,99289.13
2022-09-16T15:48:47.743Z,99296.41
2022-09-16T15:51:33.658Z,99298.23
2022-09-16T15:54:23.960Z,99290.71
2022-09-16T15:57:20.495Z,99299.47
2022-09-16T16:00:13.916Z,99299.94
2022-09-16T16:02:58.710Z,99290.98
2022-09-16T16:05:33.790Z,99290.57
2022-09-16T16:08:10.274Z,99291.09
2022-09-16T16:10:45.427Z,99297.95
2022-09-16T16:13:18.564Z,99299.16
2022-09-16T16:15:52.841Z,99306.77
2022-09-16T16:18:26.946Z,99303.23
2022-09-16T16:21:02.402Z,99305.52
2022-09-16T16:23:37.002Z,99299.02
2022-09-16T16:26:12.279Z,99309.50
2022-09-16T16:28:46.001Z,99310.04
2022-09-16T16:31:21.185Z,99304.12
2022-09-16T16:33:58.010Z,99301.05
2022-09-16T16:36:31.903Z,99299.84
2022-09-16T16:39:05.484Z,99300.20
2022-09-16T16:41:39.655Z,99298.48
2022-09-16T16:44:13.515Z,99297.92
2022-09-16T16:46:46.592Z,99301.14
2022-09-16T16:49:20.806Z,99303.08
2022-09-16T16:51:56.232Z,99295.75
2022-09-16T16:54:31.155Z,99297.13
2022-09-16T16:57:06.243Z,99301.73
2022-09-16T16:59:40.000Z,99320.27
2022-09-16T17:02:16.469Z,99315.38
2022-09-16T17:04:50.578Z,99316.77
2022-09-16T17:07:26.970Z,99307.98
2022-09-16T17:10:02.484Z,99321.33
2022-09-16T17:12:36.021Z,99319.90
2022-09-16T17:15:10.743Z,99316.79
2022-09-16T17:17:45.863Z,99317.70
2022-09-16T17:20:20.397Z,99312.55
2022-09-16T17:22:54.313Z,99321.98
2022-09-16T17:25:27.516Z,99333.89
2022-09-16T17:28:01.475Z,99342.65
2022-09-16T17:33:23.833Z,99338.11
2022-09-16T17:36:08.649Z,99331.33
2022-09-16T17:38:42.996Z,99344.36
2022-09-16T17:41:18.511Z,99351.94
2022-09-16T17:43:56.515Z,99345.91
2022-09-16T17:46:32.569Z,99361.89
2022-09-16T17:49:12.656Z,99359.70
2022-09-16T17:51:46.622Z,99353.88
2022-09-16T17:54:21.206Z,99349.12
2022-09-16T17:56:54.659Z,99349.73
2022-09-16T17:59:27.997Z,99348.15
2022-09-16T18:02:04.758Z,99342.83
2022-09-16T18:04:38.544Z,99336.59
2022-09-16T18:07:11.698Z,99334.54
2022-09-16T18:09:45.255Z,99335.54
2022-09-16T18:12:25.532Z,99339.84
2022-09-16T18:14:59.848Z,99339.77
2022-09-16T18:17:38.631Z,99338.95
2022-09-16T18:20:14.264Z,99342.23
2022-09-16T18:22:49.345Z,99337.66
2022-09-16T18:25:30.649Z,99343.30
2022-09-16T18:28:09.582Z,99343.86
2022-09-16T18:30:45.151Z,99343.58
2022-09-16T18:33:20.803Z,99347.04
2022-09-16T18:35:59.648Z,99349.65
2022-09-16T18:38:34.411Z,99345.27
2022-09-16T18:41:19.189Z,99349.50
2022-09-16T18:43:58.096Z,99353.14
2022-09-16T18:46:39.851Z,99351.89
2022-09-16T18:49:16.645Z,99357.06
2022-09-16T18:51:52.525Z,99356.02
2022-09-16T18:54:30.916Z,99358.71
2022-09-16T18:57:04.709Z,99356.73
2022-09-16T18:59:42.837Z,99358.33
2022-09-16T19:02:16.420Z,99358.48
2022-09-16T19:04:50.744Z,99358.21
2022-09-16T19:07:28.066Z,99360.85
2022-09-16T19:10:04.983Z,99369.83
2022-09-16T19:12:44.577Z,99375.09
2022-09-16T19:15:22.663Z,99369.15
2022-09-16T19:17:56.981Z,99366.64
2022-09-16T19:20:30.632Z,99372.63
2022-09-16T19:23:05.477Z,99372.59
2022-09-16T19:25:38.769Z,99378.14
2022-09-16T19:28:11.749Z,99379.13
2022-09-16T19:30:47.189Z,99378.38
2022-09-16T19:33:26.556Z,99380.80
2022-09-16T19:36:01.803Z,99376.59
2022-09-16T19:38:36.540Z,99370.83
2022-09-16T19:41:12.623Z,99349.85
2022-09-16T19:43:58.192Z,99350.23
2022-09-16T19:46:36.709Z,99358.20
2022-09-16T19:49:10.950Z,99353.11
2022-09-16T19:51:44.030Z,99346.60
2022-09-16T19:54:18.234Z,99372.09
2022-09-16T19:56:56.143Z,99369.11
2022-09-16T19:59:30.164Z,99383.94
2022-09-16T20:02:09.433Z,99386.95
2022-09-16T20:04:42.852Z,99384.56
2022-09-16T20:07:17.787Z,99382.65
2022-09-16T20:09:51.071Z,99383.27
2022-09-16T20:12:24.871Z,99380.52
2022-09-16T20:14:58.586Z,99366.37
2022-09-16T20:17:37.328Z,99369.70
2022-09-16T20:20:14.789Z,99372.91
2022-09-16T20:22:53.958Z,99371.51
2022-09-16T20:25:30.229Z,99368.17
2022-09-16T20:28:06.421Z,99369.21
2022-09-16T20:30:41.389Z,99358.13
2022-09-16T20:33:14.218Z,99355.29
2022-09-16T20:35:47.736Z,99347.22
2022-09-16T20:38:22.375Z,99347.95
2022-09-16T20:40:55.994Z,99346.59
2022-09-16T20:43:29.655Z,99355.33
2022-09-16T20:46:20.972Z,99359.83
2022-09-16T20:48:59.427Z,99348.75
2022-09-16T20:51:35.587Z,99355.14
2022-09-16T20:54:11.924Z,99347.28
2022-09-16T20:56:48.142Z,99336.34
2022-09-16T20:59:21.939Z,99335.24
2022-09-16T21:01:54.611Z,99344.88
2022-09-16T21:04:27.528Z,99344.61
2022-09-16T21:07:00.921Z,99332.41
2022-09-16T21:09:45.120Z,99341.58
2022-09-16T21:12:20.743Z,99342.05
2022-09-16T21:14:58.372Z,99340.17
2022-09-16T21:17:32.107Z,99338.48
2022-09-16T21:20:06.625Z,99327.73
2022-09-16T21:22:40.498Z,99329.93
2022-09-16T21:25:16.720Z,99332.76
2022-09-16T21:27:52.774Z,99328.87
2022-09-16T21:30:26.691Z,99320.78
2022-09-16T21:33:01.047Z,99319.40
2022-09-16T21:35:34.416Z,99317.31
2022-09-16T21:38:07.966Z,99320.94
2022-09-16T21:40:41.592Z,99319.73
2022-09-16T21:43:16.527Z,99317.41
2022-09-16T21:45:55.126Z,99302.10
2022-09-16T21:48:34.632Z,99309.58
2022-09-16T21:51:12.102Z,99308.29
2022-09-16T21:53:45.564Z,99294.73
2022-09-16T21:56:24.669Z,99297.34
2022-09-16T21:59:00.388Z,99296.48
2022-09-16T22:01:34.124Z,99293.45
2022-09-16T22:04:14.036Z,99286.36
2022-09-16T22:06:49.924Z,99281.08
2022-09-16T22:09:24.813Z,99291.45
2022-09-16T22:12:00.235Z,99285.74
2022-09-16T22:14:35.839Z,99281.35
2022-09-16T22:17:09.876Z,99291.23
2022-09-16T22:19:50.274Z,99297.93
2022-09-16T22:22:23.933Z,99290.67
2022-09-16T22:24:57.390Z,99295.73
2022-09-16T22:27:31.608Z,99288.23
2022-09-16T22:30:04.871Z,99302.53
2022-09-16T22:32:41.094Z,99296.51
2022-09-16T22:35:15.768Z,99283.02
2022-09-16T22:37:52.130Z,99285.52
2022-09-16T22:40:26.097Z,99287.95
2022-09-16T22:43:04.311Z,99290.46
2022-09-16T22:45:38.185Z,99286.14
2022-09-16T22:48:11.576Z,99276.95
2022-09-16T22:50:44.482Z,99276.70
2022-09-16T22:53:17.922Z,99280.64
2022-09-16T22:55:56.867Z,99280.54
2022-09-16T22:58:34.599Z,99278.13
2022-09-16T23:01:21.041Z,99274.17
2022-09-16T23:03:59.411Z,99277.89
2022-09-16T23:06:34.490Z,99285.40
2022-09-16T23:09:13.180Z,99286.77
2022-09-16T23:11:47.260Z,99290.80
2022-09-16T23:14:22.119Z,99277.39
2022-09-16T23:16:56.018Z,99273.51
2022-09-16T23:19:29.626Z,99273.22
2022-09-16T23:22:07.924Z,99279.90
2022-09-16T23:24:46.468Z,99273.23
2022-09-16T23:27:19.957Z,99278.79
2022-09-16T23:29:52.977Z,99269.85
2022-09-16T23:32:26.141Z,99277.33
2022-09-16T23:34:59.893Z,99274.99
2022-09-16T23:37:37.678Z,99273.59
2022-09-16T23:40:13.143Z,99274.64
2022-09-16T23:42:49.761Z,99268.77
2022-09-16T23:45:22.916Z,99279.19
2022-09-16T23:47:56.555Z,99277.13
2022-09-16T23:50:29.703Z,99270.70
2022-09-16T23:53:03.999Z,99269.45
2022-09-16T23:55:37.211Z,99262.91
2022-09-16T23:58:28.975Z,99278.90
